Aérodrome :
LOGIN :

S'inscrire | Disclaimer

   EN    FR    IT 

 










Légende :    VFR   VFR Marginal   IFR   IFR Intensif   IFR Très Intensif
Visi : 
Plafond : 
>= 8 km
>= 3000ft
5 à 8 km
1000 à 3000 ft
1500m à 5 km
500 à 1000 ft
800 à 1500m
200 à 500 ft
< 800m
< 200 ft
Symboles :   Orages  Brouillard  Fortes neiges  Fortes précipitations  Vent > 20 kt
SIGMETs :   Divers  Orages  Givrage  Turbulence  Onde Orograph.  Cendres Volcan.






- Altitude de l'aérodrome : 1649 ft
- Code IATA : HHN


EDFH - Frankfurt-Hahn Rhineland-Palatinate

DERNIER METAR :
  • 162220Z 12006KT CAVOK 19/12 Q1012

METARs EXPIRÉS :
  • 162150Z 12006KT CAVOK 21/12 Q1012
  • 162120Z 13004KT CAVOK 20/12 Q1012
  • 162050Z 16004KT 150V230 CAVOK 22/13 Q1012
  • 162020Z 14004KT CAVOK 22/13 Q1012
  • 161950Z 13005KT CAVOK 22/13 Q1011

TAF TAF EDFH
Valide du 16 à 18h jusqu'au 17 à 18h UTC


161700Z 1618/1718 14005KT CAVOK
PROB30
TEMPO 1706/1708 SHRA BKN050CB
BECMG 1709/1711 20006KT
BECMG 1715/1718 34005KT



MET'MAP, la Météo Aéronautique d'un coup d'oeil ! - Copyright ORBIFLY Décembre 2007 - Disclaimer

ORBIFLY MET'MAP TEAM :

Programmation & Développement : Alexandra Zaïnal
Sur une idée originale de : Baudouin d'Aumeries
Soutien technique & logistique : Manuel Goepfert
Assistance : Marc-Olivier Méhu




SOURCES & CREDITS :

   NOAA